Time;durP1;ratioP1;P1;durP2;ratioP2;P2;SDS_P1;SDS_P2;PMS_P1;PMS_P2;Temp;Humidity;BMP_temperature;BMP_pressure;BME280_temperature;BME280_humidity;BME280_pressure;Samples;Min_cycle;Max_cycle;Signal;HPM_P1;HPM_P2
2022/01/13 00:01:30;;;;;;;58.83;34.65;;;2.70;99.90;;;;;;5075450;28;20465;-52
2022/01/13 00:03:56;;;;;;;57.38;32.92;;;2.80;99.90;;;;;;5075603;28;20040;-52
2022/01/13 00:06:21;;;;;;;44.10;26.33;;;2.80;99.90;;;;;;5075312;28;20353;-51
2022/01/13 00:08:47;;;;;;;39.10;24.08;;;2.80;99.90;;;;;;5074500;28;20115;-50
2022/01/13 00:11:13;;;;;;;38.88;24.42;;;2.90;99.90;;;;;;5075115;28;20028;-52
2022/01/13 00:13:50;;;;;;;76.80;42.65;;;2.80;99.90;;;;;;5023387;28;20033;-52
2022/01/13 00:21:48;;;;;;;68.57;36.08;;;3.00;99.90;;;;;;5074599;28;20387;-51
2022/01/13 00:24:14;;;;;;;37.85;23.13;;;3.10;99.60;;;;;;5068615;28;20186;-52
2022/01/13 00:26:40;;;;;;;36.50;22.10;;;3.20;99.40;;;;;;5074596;28;20126;-51
2022/01/13 00:29:08;;;;;;;45.83;27.70;;;3.10;98.90;;;;;;5075549;28;20028;-50
2022/01/13 00:31:38;;;;;;;68.57;36.13;;;3.00;99.00;;;;;;5039201;28;20110;-49
2022/01/13 00:34:06;;;;;;;101.25;44.38;;;3.00;99.20;;;;;;5074513;28;20086;-51
2022/01/13 00:36:38;;;;;;;42.58;23.73;;;3.10;98.80;;;;;;5074572;28;20036;-52
2022/01/13 00:39:06;;;;;;;64.57;31.95;;;3.20;98.70;;;;;;5071320;28;20396;-52
2022/01/13 00:41:32;;;;;;;66.63;35.00;;;3.10;99.00;;;;;;5074568;28;20031;-50
2022/01/13 00:44:00;;;;;;;60.58;33.00;;;3.00;99.40;;;;;;5075177;28;20610;-51
2022/01/13 00:46:31;;;;;;;63.03;35.75;;;2.90;99.90;;;;;;5074314;28;20044;-50
2022/01/13 00:48:58;;;;;;;59.83;33.67;;;2.90;99.80;;;;;;5039455;28;20662;-49
2022/01/13 00:51:24;;;;;;;40.90;25.63;;;3.00;99.90;;;;;;5074346;28;20029;-52
2022/01/13 00:53:51;;;;;;;33.72;22.05;;;3.10;99.40;;;;;;5074309;28;20082;-51
2022/01/13 00:56:18;;;;;;;35.42;22.02;;;3.00;99.70;;;;;;5074252;28;20036;-50
2022/01/13 00:58:44;;;;;;;32.13;20.85;;;2.90;99.30;;;;;;5074886;28;20456;-50
2022/01/13 01:01:10;;;;;;;31.85;20.42;;;2.90;99.80;;;;;;5074227;28;20031;-49
2022/01/13 01:03:37;;;;;;;33.15;21.27;;;2.60;99.90;;;;;;5029839;28;20035;-51
2022/01/13 01:06:04;;;;;;;33.25;21.77;;;2.30;99.90;;;;;;5022881;28;20082;-50
2022/01/13 01:08:32;;;;;;;39.85;26.05;;;2.10;99.90;;;;;;5074099;28;20475;-51
2022/01/13 01:11:01;;;;;;;50.45;30.70;;;2.20;99.90;;;;;;5073901;28;20028;-51
2022/01/13 01:13:29;;;;;;;42.42;26.73;;;2.30;99.90;;;;;;5074111;28;20502;-49
2022/01/13 01:15:58;;;;;;;44.85;27.63;;;2.40;99.90;;;;;;5074304;28;20041;-49
2022/01/13 01:23:45;;;;;;;48.10;29.25;;;2.80;99.90;;;;;;5072785;28;20121;-52
2022/01/13 01:31:33;;;;;;;45.17;26.23;;;2.30;99.90;;;;;;5074303;28;20493;-49
2022/01/13 01:36:46;;;;;;;45.75;28.48;;;2.20;99.90;;;;;;4991658;28;20442;-50
2022/01/13 01:39:12;;;;;;;45.63;27.65;;;2.30;99.90;;;;;;4973221;28;20072;-49
2022/01/13 01:41:42;;;;;;;45.53;29.08;;;2.40;99.90;;;;;;5003707;28;20034;-51
2022/01/13 01:44:10;;;;;;;58.10;32.92;;;2.60;99.90;;;;;;5002843;28;20041;-49
2022/01/13 01:46:38;;;;;;;59.67;35.78;;;2.80;99.90;;;;;;4962713;28;20110;-49
2022/01/13 01:49:15;;;;;;;46.92;30.42;;;2.90;99.90;;;;;;4988778;28;20045;-50
2022/01/13 01:51:45;;;;;;;54.72;30.45;;;2.90;99.90;;;;;;4998209;28;20046;-50
2022/01/13 01:54:11;;;;;;;59.45;35.83;;;2.80;99.90;;;;;;4970416;28;20101;-51
2022/01/13 01:56:38;;;;;;;81.50;46.30;;;2.90;99.90;;;;;;4975501;28;20113;-51
2022/01/13 01:59:06;;;;;;;58.00;38.00;;;2.70;99.90;;;;;;4974831;28;20058;-51
2022/01/13 02:01:32;;;;;;;55.80;35.00;;;2.70;99.90;;;;;;4992149;28;20065;-51
2022/01/13 02:03:58;;;;;;;61.75;35.60;;;2.70;99.90;;;;;;4998110;28;20119;-49
2022/01/13 02:06:24;;;;;;;63.05;39.60;;;2.60;99.90;;;;;;4953043;28;20100;-51
2022/01/13 02:08:49;;;;;;;61.63;35.80;;;2.80;99.90;;;;;;4999901;28;20422;-51
2022/01/13 02:11:16;;;;;;;57.60;35.28;;;2.70;99.90;;;;;;4968494;28;20038;-51
2022/01/13 02:13:48;;;;;;;57.40;37.08;;;2.80;99.90;;;;;;5023989;28;20032;-51
2022/01/13 02:18:56;;;;;;;72.20;39.72;;;2.90;99.90;;;;;;5024868;28;20110;-50
2022/01/13 02:21:25;;;;;;;202.75;89.90;;;2.90;99.90;;;;;;4988204;28;20036;-49
2022/01/13 02:23:51;;;;;;;62.03;37.33;;;2.80;99.90;;;;;;5073231;28;20036;-50
2022/01/13 02:26:17;;;;;;;55.13;36.05;;;2.70;99.90;;;;;;5054733;28;20472;-50
2022/01/13 02:28:44;;;;;;;64.47;38.20;;;2.80;99.90;;;;;;5053932;28;20459;-53
2022/01/13 02:31:11;;;;;;;60.58;37.60;;;2.80;99.90;;;;;;5073043;28;20071;-51
2022/01/13 02:33:38;;;;;;;57.05;35.17;;;2.70;99.90;;;;;;5071596;28;20066;-52
2022/01/13 02:36:04;;;;;;;59.00;36.65;;;2.60;99.90;;;;;;5072266;28;20067;-51
2022/01/13 02:38:30;;;;;;;58.20;35.65;;;2.70;99.90;;;;;;5072660;28;20024;-49
2022/01/13 02:40:59;;;;;;;60.63;36.67;;;2.70;99.90;;;;;;5072196;28;20078;-50
2022/01/13 02:43:25;;;;;;;58.35;34.83;;;2.80;99.90;;;;;;5053107;28;20044;-50
2022/01/13 02:46:17;;;;;;;61.90;35.92;;;2.90;99.90;;;;;;5073130;28;20028;-49
2022/01/13 02:48:44;;;;;;;63.38;36.10;;;3.00;99.90;;;;;;5035739;28;20381;-48
2022/01/13 02:51:10;;;;;;;59.65;37.53;;;3.00;99.90;;;;;;5072310;28;20043;-50
2022/01/13 02:53:36;;;;;;;57.95;34.60;;;3.00;99.90;;;;;;5020759;28;20036;-52
2022/01/13 02:56:04;;;;;;;54.90;34.90;;;3.00;99.90;;;;;;5018232;28;20028;-50
2022/01/13 02:58:32;;;;;;;56.45;34.78;;;3.10;99.90;;;;;;5072579;28;20040;-50
2022/01/13 03:00:59;;;;;;;62.83;36.25;;;3.00;99.90;;;;;;5072263;28;20039;-51
2022/01/13 03:03:26;;;;;;;58.63;37.40;;;3.00;99.90;;;;;;5072858;28;20024;-51
2022/01/13 03:05:52;;;;;;;60.90;35.28;;;3.00;99.90;;;;;;5072193;28;20104;-50
2022/01/13 03:08:19;;;;;;;63.95;39.03;;;3.00;99.90;;;;;;4987203;28;20555;-51
2022/01/13 03:10:45;;;;;;;65.35;37.80;;;3.00;99.90;;;;;;5070219;28;20356;-50
2022/01/13 03:13:11;;;;;;;62.75;40.10;;;2.90;99.90;;;;;;5072519;28;20036;-51
2022/01/13 03:15:36;;;;;;;65.32;38.75;;;2.70;99.90;;;;;;5072388;28;20853;-50
2022/01/13 03:18:02;;;;;;;60.10;37.53;;;2.80;99.90;;;;;;5018443;28;20037;-49
2022/01/13 03:20:28;;;;;;;62.13;37.10;;;2.70;99.90;;;;;;4954834;28;20097;-50
2022/01/13 03:22:54;;;;;;;66.03;40.33;;;2.80;99.90;;;;;;5071427;28;20103;-51
2022/01/13 03:25:22;;;;;;;67.47;40.83;;;2.70;99.90;;;;;;5072467;28;20029;-51
2022/01/13 03:27:56;;;;;;;61.05;37.47;;;2.70;99.90;;;;;;5032569;28;20590;-51
2022/01/13 03:30:22;;;;;;;66.07;36.38;;;2.70;99.90;;;;;;5067145;28;20036;-50
2022/01/13 03:32:48;;;;;;;56.53;37.22;;;2.60;99.90;;;;;;5071703;28;20032;-49
2022/01/13 03:35:14;;;;;;;61.22;36.92;;;2.50;99.90;;;;;;5072562;28;20025;-50
2022/01/13 03:37:40;;;;;;;61.72;37.50;;;2.50;99.90;;;;;;5032579;28;20119;-49
2022/01/13 03:40:08;;;;;;;60.40;38.70;;;2.40;99.90;;;;;;5071702;28;20151;-50
2022/01/13 03:42:34;;;;;;;62.60;36.83;;;2.20;99.90;;;;;;5072021;28;20044;-50
2022/01/13 03:45:00;;;;;;;61.75;35.90;;;2.10;99.90;;;;;;5074112;28;20029;-50
2022/01/13 03:47:26;;;;;;;59.45;35.58;;;1.70;99.90;;;;;;5075236;28;20052;-49
2022/01/13 03:49:54;;;;;;;61.05;35.70;;;1.70;99.90;;;;;;5075175;28;20085;-50
2022/01/13 03:52:22;;;;;;;59.33;36.67;;;1.70;99.90;;;;;;5075670;28;20395;-50
2022/01/13 03:55:19;;;;;;;58.25;36.08;;;1.70;99.90;;;;;;5074422;28;20025;-50
2022/01/13 03:58:23;;;;;;;58.15;34.85;;;1.70;99.90;;;;;;5074587;28;20025;-50
2022/01/13 04:01:26;;;;;;;61.65;38.10;;;1.70;99.90;;;;;;5037609;28;20135;-51
2022/01/13 04:03:52;;;;;;;62.28;38.58;;;1.70;99.90;;;;;;5073756;28;20043;-52
2022/01/13 04:06:17;;;;;;;63.35;35.75;;;1.60;99.90;;;;;;5075158;28;20028;-48
2022/01/13 04:08:48;;;;;;;63.58;37.95;;;1.60;99.90;;;;;;5055866;28;20028;-50
2022/01/13 04:11:28;;;;;;;71.38;40.03;;;1.90;99.90;;;;;;5071224;28;20078;-49
2022/01/13 04:13:57;;;;;;;65.40;38.25;;;1.70;99.90;;;;;;5076273;28;20031;-48
2022/01/13 04:16:29;;;;;;;65.45;38.42;;;1.70;99.90;;;;;;5076337;28;20391;-49
2022/01/13 04:19:00;;;;;;;62.65;37.42;;;1.70;99.90;;;;;;5076918;28;20056;-51
2022/01/13 04:21:26;;;;;;;64.53;38.30;;;1.60;99.90;;;;;;5075365;28;20040;-49
2022/01/13 04:23:56;;;;;;;68.82;41.75;;;1.60;99.90;;;;;;5074633;28;20119;-50
2022/01/13 04:26:27;;;;;;;66.63;40.28;;;1.60;99.90;;;;;;5075424;28;20036;-50
2022/01/13 04:31:30;;;;;;;101.55;61.95;;;1.60;99.90;;;;;;5074232;28;20098;-50
2022/01/13 04:33:55;;;;;;;93.65;56.47;;;1.60;99.90;;;;;;5074592;28;20028;-49
2022/01/13 04:36:21;;;;;;;83.45;50.05;;;1.60;99.90;;;;;;5073120;28;20071;-49
2022/01/13 04:38:47;;;;;;;96.20;50.30;;;1.60;99.90;;;;;;5075047;28;20025;-50
2022/01/13 04:41:15;;;;;;;59.75;35.08;;;1.60;99.90;;;;;;5074588;28;20029;-50
2022/01/13 04:43:43;;;;;;;78.18;47.10;;;1.60;99.90;;;;;;5074314;28;20063;-50
2022/01/13 04:46:08;;;;;;;71.18;44.00;;;1.50;99.90;;;;;;5074853;28;20039;-50
2022/01/13 04:48:34;;;;;;;74.57;44.30;;;1.50;99.90;;;;;;5074440;28;20028;-49
2022/01/13 04:51:00;;;;;;;59.00;36.42;;;1.50;99.90;;;;;;5074002;28;20020;-49
2022/01/13 04:53:25;;;;;;;85.35;50.35;;;1.50;99.90;;;;;;5074833;28;20091;-49
2022/01/13 04:55:57;;;;;;;77.38;46.92;;;1.60;99.90;;;;;;5073125;28;20472;-51
2022/01/13 04:58:22;;;;;;;71.47;42.07;;;1.50;99.90;;;;;;5024864;28;20048;-49
2022/01/13 05:00:48;;;;;;;73.75;42.15;;;1.50;99.90;;;;;;5055503;28;20476;-52
2022/01/13 05:03:14;;;;;;;79.57;44.83;;;1.40;99.90;;;;;;5039241;28;20039;-50
2022/01/13 05:05:40;;;;;;;55.08;33.78;;;1.30;99.90;;;;;;5037950;28;20040;-49
2022/01/13 05:08:06;;;;;;;54.83;32.42;;;1.30;99.90;;;;;;5074098;28;20541;-51
2022/01/13 05:10:31;;;;;;;56.60;34.10;;;1.30;99.90;;;;;;5074270;28;20029;-50
2022/01/13 05:12:58;;;;;;;59.45;36.28;;;1.30;99.90;;;;;;5073889;28;20068;-51
2022/01/13 05:15:26;;;;;;;58.33;34.22;;;1.40;99.90;;;;;;5038955;28;20131;-48
2022/01/13 05:18:10;;;;;;;54.28;31.10;;;1.30;99.90;;;;;;5077592;28;20043;-51
2022/01/13 05:20:40;;;;;;;52.60;31.55;;;1.20;99.90;;;;;;5076185;28;20047;-49
2022/01/13 05:23:08;;;;;;;57.45;33.75;;;1.10;99.90;;;;;;5074192;28;20545;-50
2022/01/13 05:25:33;;;;;;;85.07;54.85;;;1.10;99.90;;;;;;5035711;28;20131;-50
2022/01/13 05:27:59;;;;;;;71.18;45.35;;;1.20;99.90;;;;;;5073417;28;20062;-48
2022/01/13 05:30:25;;;;;;;64.45;40.30;;;1.30;99.90;;;;;;5072914;28;20035;-51
2022/01/13 05:32:51;;;;;;;78.45;45.00;;;1.30;99.90;;;;;;5075288;28;20020;-51
2022/01/13 05:35:17;;;;;;;186.77;113.68;;;1.40;99.90;;;;;;4990720;28;20041;-50
2022/01/13 05:37:44;;;;;;;78.88;49.45;;;1.50;99.90;;;;;;5073225;28;20021;-51
2022/01/13 05:40:12;;;;;;;65.78;38.47;;;1.50;99.90;;;;;;5074031;28;20048;-51
2022/01/13 05:42:38;;;;;;;72.53;42.00;;;1.50;99.90;;;;;;5037613;28;20532;-51
2022/01/13 05:45:07;;;;;;;67.60;42.30;;;1.40;99.90;;;;;;5021993;28;20037;-50
2022/01/13 05:47:33;;;;;;;86.38;43.90;;;1.50;99.90;;;;;;4998215;28;20199;-49
2022/01/13 05:49:58;;;;;;;65.93;42.85;;;1.50;99.90;;;;;;5073943;28;20119;-49
2022/01/13 05:52:24;;;;;;;69.28;40.22;;;1.40;99.90;;;;;;5073147;28;20089;-50
2022/01/13 05:54:50;;;;;;;70.93;40.30;;;1.50;99.90;;;;;;5030024;28;20032;-48
2022/01/13 05:57:16;;;;;;;76.88;43.13;;;1.40;99.90;;;;;;5073244;28;20472;-51
2022/01/13 05:59:41;;;;;;;82.32;45.67;;;1.50;99.90;;;;;;5072879;28;20039;-50
2022/01/13 06:02:07;;;;;;;72.60;40.90;;;1.50;99.90;;;;;;5073209;28;20029;-51
2022/01/13 06:04:33;;;;;;;115.40;54.00;;;1.50;99.90;;;;;;5073404;28;20108;-49
2022/01/13 06:06:59;;;;;;;61.67;36.75;;;1.50;99.90;;;;;;5037718;28;20028;-50
2022/01/13 06:09:25;;;;;;;106.85;55.10;;;1.40;99.90;;;;;;5033853;28;20035;-51
2022/01/13 06:12:01;;;;;;;58.72;35.63;;;1.50;99.90;;;;;;5017632;28;20382;-50
2022/01/13 06:14:27;;;;;;;55.28;33.15;;;1.50;99.90;;;;;;5021543;28;20403;-50
2022/01/13 06:16:53;;;;;;;54.95;32.63;;;1.60;99.90;;;;;;5053909;28;20033;-50
2022/01/13 06:19:19;;;;;;;54.63;32.97;;;1.40;99.90;;;;;;5072750;28;20044;-51
2022/01/13 06:21:45;;;;;;;51.30;32.25;;;1.40;99.90;;;;;;5072527;28;20035;-50
2022/01/13 06:24:11;;;;;;;55.97;32.85;;;1.40;99.90;;;;;;5073245;28;20550;-49
2022/01/13 06:26:36;;;;;;;64.57;37.70;;;1.30;99.90;;;;;;5020868;28;20032;-48
2022/01/13 06:29:02;;;;;;;57.63;35.72;;;1.10;99.90;;;;;;5072876;28;20402;-49
2022/01/13 06:31:28;;;;;;;57.25;34.88;;;1.00;99.90;;;;;;5072941;28;20503;-50
2022/01/13 06:33:54;;;;;;;56.47;34.35;;;1.00;99.90;;;;;;5072396;28;20034;-49
2022/01/13 06:36:20;;;;;;;55.58;34.15;;;1.00;99.90;;;;;;5072613;28;20085;-50
2022/01/13 06:38:48;;;;;;;55.08;32.70;;;1.10;99.90;;;;;;5020828;28;20037;-50
2022/01/13 06:41:15;;;;;;;52.55;32.58;;;1.20;99.90;;;;;;5013301;28;20461;-51
2022/01/13 06:43:41;;;;;;;49.35;30.85;;;1.40;99.90;;;;;;5072573;28;20106;-49
2022/01/13 06:46:07;;;;;;;50.65;30.73;;;1.50;99.90;;;;;;5072269;28;20032;-49
2022/01/13 06:48:32;;;;;;;55.08;34.20;;;1.60;99.90;;;;;;5035923;28;20044;-50
2022/01/13 06:50:58;;;;;;;58.28;33.50;;;1.70;99.90;;;;;;5072378;28;20021;-51
2022/01/13 06:53:24;;;;;;;50.17;30.52;;;1.70;99.90;;;;;;5072472;28;20043;-51
2022/01/13 06:55:51;;;;;;;55.40;30.92;;;1.80;99.90;;;;;;5072789;28;20041;-51
2022/01/13 06:58:17;;;;;;;61.40;34.90;;;1.70;99.90;;;;;;5020284;28;20041;-51
2022/01/13 07:00:43;;;;;;;61.65;36.85;;;1.70;99.90;;;;;;5035608;28;20074;-51
2022/01/13 07:03:10;;;;;;;75.85;39.38;;;1.70;99.90;;;;;;5072683;28;20020;-53
2022/01/13 07:05:36;;;;;;;64.68;35.35;;;1.70;99.90;;;;;;5072134;28;20079;-53
2022/01/13 07:08:03;;;;;;;57.97;33.25;;;1.90;99.90;;;;;;5072148;28;20471;-51
2022/01/13 07:10:29;;;;;;;76.22;40.00;;;2.00;99.90;;;;;;5072159;28;20113;-58
2022/01/13 07:12:55;;;;;;;89.22;38.72;;;2.10;99.90;;;;;;5072341;28;20383;-50
2022/01/13 07:15:21;;;;;;;107.63;56.55;;;2.30;99.90;;;;;;5072183;28;20029;-51
2022/01/13 07:17:47;;;;;;;101.35;50.83;;;2.30;99.90;;;;;;5072879;28;20024;-52
2022/01/13 07:20:13;;;;;;;74.65;41.42;;;2.40;99.90;;;;;;5074326;28;20036;-53
2022/01/13 07:22:40;;;;;;;87.63;42.17;;;2.50;99.90;;;;;;5023903;28;20528;-53
2022/01/13 07:25:08;;;;;;;91.78;43.45;;;2.60;99.90;;;;;;5040223;28;20496;-52
2022/01/13 07:27:34;;;;;;;85.30;42.60;;;2.70;99.90;;;;;;5041192;28;20063;-53
2022/01/13 07:29:59;;;;;;;53.45;32.03;;;2.60;99.90;;;;;;5075821;28;20476;-51
2022/01/13 07:32:25;;;;;;;81.95;42.92;;;2.60;99.90;;;;;;4982725;28;20052;-51
2022/01/13 07:34:51;;;;;;;81.55;41.17;;;2.80;99.90;;;;;;5076568;28;20063;-52
2022/01/13 07:37:18;;;;;;;102.07;46.28;;;;;;;;;;5075968;28;20409;-56
2022/01/13 07:39:44;;;;;;;52.75;31.30;;;;;;;;;;5075843;28;20044;-51
2022/01/13 07:42:10;;;;;;;53.53;32.50;;;;;;;;;;5075644;28;20033;-52
2022/01/13 07:44:36;;;;;;;55.28;35.95;;;3.50;99.90;;;;;;5074824;28;20028;-53
2022/01/13 07:47:02;;;;;;;56.63;34.00;;;3.40;99.90;;;;;;5036244;28;20045;-54
2022/01/13 07:49:28;;;;;;;48.67;29.73;;;3.50;99.90;;;;;;5054860;28;20033;-57
2022/01/13 07:51:54;;;;;;;77.63;42.60;;;3.70;99.90;;;;;;5053334;28;20048;-50
2022/01/13 07:54:21;;;;;;;57.15;34.33;;;3.90;99.90;;;;;;5055972;28;20025;-55
2022/01/13 07:56:46;;;;;;;52.70;32.95;;;4.10;99.90;;;;;;5026234;28;20037;-54
2022/01/13 07:59:12;;;;;;;56.13;35.38;;;;;;;;;;5036330;28;20049;-52
2022/01/13 08:01:38;;;;;;;50.17;32.45;;;4.40;99.90;;;;;;5055769;28;20033;-55
2022/01/13 08:04:04;;;;;;;49.33;30.75;;;4.70;99.90;;;;;;5053659;28;20048;-55
2022/01/13 08:06:30;;;;;;;48.17;31.17;;;4.70;99.90;;;;;;5054570;28;20051;-50
2022/01/13 08:08:56;;;;;;;51.95;32.25;;;;;;;;;;5001198;28;20484;-52
2022/01/13 08:11:22;;;;;;;44.45;28.05;;;;;;;;;;5055232;28;20021;-53
2022/01/13 08:13:49;;;;;;;47.53;29.60;;;;;;;;;;5027532;28;20053;-55
2022/01/13 08:16:17;;;;;;;54.08;33.05;;;;;;;;;;5053753;28;20424;-54
2022/01/13 08:21:27;;;;;;;48.35;31.75;;;4.80;99.40;;;;;;5053211;28;20487;-54
2022/01/13 08:23:53;;;;;;;48.05;30.77;;;5.70;99.90;;;;;;5053351;28;20099;-53
2022/01/13 08:26:19;;;;;;;47.05;31.38;;;5.90;98.80;;;;;;5062232;28;20407;-57
2022/01/13 08:28:46;;;;;;;49.92;32.55;;;7.70;99.00;;;;;;5053548;28;20047;-54
2022/01/13 08:31:11;;;;;;;46.72;31.05;;;7.60;98.10;;;;;;5050911;28;20037;-55
2022/01/13 08:33:39;;;;;;;55.67;36.47;;;7.70;96.20;;;;;;5052774;28;20025;-53
2022/01/13 08:36:05;;;;;;;56.50;35.30;;;9.20;96.00;;;;;;5052895;28;20083;-54
2022/01/13 08:38:33;;;;;;;46.90;31.20;;;10.90;93.50;;;;;;5016227;28;20045;-54
2022/01/13 08:40:59;;;;;;;49.30;31.48;;;11.00;92.20;;;;;;5053247;28;20446;-53
2022/01/13 08:43:27;;;;;;;47.60;31.92;;;;;;;;;;5053722;28;20025;-53
2022/01/13 08:45:53;;;;;;;50.05;32.50;;;12.00;90.30;;;;;;5047016;28;20028;-56
2022/01/13 08:48:19;;;;;;;47.83;31.55;;;11.70;89.20;;;;;;5072335;28;20093;-52
2022/01/13 08:50:46;;;;;;;51.70;32.28;;;12.10;86.50;;;;;;5072836;28;20036;-59
2022/01/13 08:53:14;;;;;;;60.00;39.28;;;12.40;86.00;;;;;;5064743;28;20441;-59
2022/01/13 08:55:39;;;;;;;50.05;32.60;;;12.40;86.60;;;;;;5073863;28;20068;-55
2022/01/13 08:58:05;;;;;;;58.42;38.85;;;11.50;85.90;;;;;;5074589;28;20059;-60
2022/01/13 09:00:32;;;;;;;69.75;43.22;;;12.30;85.10;;;;;;5074685;28;20046;-63
2022/01/13 09:03:00;;;;;;;53.78;35.20;;;11.20;84.20;;;;;;5073738;28;20036;-62
2022/01/13 09:05:26;;;;;;;45.40;28.50;;;11.00;86.00;;;;;;5074226;28;20041;-61
2022/01/13 09:07:52;;;;;;;46.70;29.75;;;10.60;84.80;;;;;;5038693;28;20376;-57
2022/01/13 09:10:18;;;;;;;51.50;34.08;;;9.80;99.90;;;;;;5074854;28;20032;-63
2022/01/13 09:12:44;;;;;;;49.80;33.60;;;;;;;;;;5073931;28;20035;-57
2022/01/13 09:15:19;;;;;;;48.58;33.30;;;11.50;99.90;;;;;;5075109;28;20537;-56
2022/01/13 09:17:52;;;;;;;48.53;37.60;;;11.50;96.60;;;;;;5074009;28;20037;-60
2022/01/13 09:20:18;;;;;;;44.53;33.33;;;12.50;83.50;;;;;;5072706;28;20411;-61
2022/01/13 09:22:44;;;;;;;37.03;26.42;;;12.90;82.00;;;;;;5071533;28;20025;-53
2022/01/13 09:25:11;;;;;;;43.05;30.88;;;12.30;80.00;;;;;;5070930;28;20033;-58
2022/01/13 09:27:40;;;;;;;48.53;32.53;;;12.10;81.10;;;;;;5039318;28;20435;-58
2022/01/13 09:30:10;;;;;;;43.38;30.45;;;11.40;81.40;;;;;;5028087;28;20477;-55
2022/01/13 09:32:36;;;;;;;48.10;34.15;;;11.00;81.30;;;;;;5070782;28;20028;-57
2022/01/13 09:35:04;;;;;;;44.95;33.15;;;11.60;80.50;;;;;;5027060;28;20033;-57
2022/01/13 09:37:31;;;;;;;45.67;33.83;;;11.70;81.30;;;;;;5011622;28;20369;-54
2022/01/13 09:39:57;;;;;;;39.13;30.45;;;12.00;79.50;;;;;;5029805;28;20097;-57
2022/01/13 09:42:27;;;;;;;44.28;36.33;;;12.70;78.80;;;;;;4998383;28;20045;-59
2022/01/13 09:44:57;;;;;;;48.00;40.45;;;;;;;;;;5032285;28;20512;-57
2022/01/13 09:47:23;;;;;;;43.90;33.63;;;;;;;;;;4999637;28;20053;-59
2022/01/13 09:49:50;;;;;;;45.42;35.80;;;;;;;;;;5030132;28;20045;-55
2022/01/13 09:52:16;;;;;;;47.72;34.17;;;;;;;;;;5029503;28;20109;-57
2022/01/13 09:54:43;;;;;;;43.55;35.25;;;;;;;;;;5017979;28;20121;-58
2022/01/13 09:57:09;;;;;;;52.92;40.20;;;14.70;73.90;;;;;;5027501;28;20030;-57
2022/01/13 09:59:35;;;;;;;52.22;46.63;;;;;;;;;;5031388;28;20025;-53
2022/01/13 10:02:01;;;;;;;56.22;40.53;;;15.60;97.00;;;;;;4996000;28;20038;-55
2022/01/13 10:04:48;;;;;;;53.22;47.35;;;15.10;73.10;;;;;;4997954;28;20048;-52
2022/01/13 10:07:29;;;;;;;53.53;47.97;;;14.90;72.00;;;;;;5067067;28;20379;-54
2022/01/13 10:09:56;;;;;;;64.78;58.55;;;;;;;;;;5072533;28;20028;-59
2022/01/13 10:12:27;;;;;;;47.10;39.20;;;;;;;;;;5071880;28;20037;-54
2022/01/13 10:17:45;;;;;;;44.13;34.65;;;15.00;71.00;;;;;;5035249;28;20064;-56
2022/01/13 10:20:12;;;;;;;65.63;43.17;;;;;;;;;;5072605;28;20076;-54
2022/01/13 10:22:38;;;;;;;44.20;37.40;;;14.80;69.80;;;;;;5071830;28;20112;-54
2022/01/13 10:25:04;;;;;;;49.97;39.33;;;;;;;;;;5073271;28;20064;-52
2022/01/13 10:27:33;;;;;;;48.28;38.05;;;14.30;68.60;;;;;;5037698;28;20044;-53
2022/01/13 10:30:16;;;;;;;45.28;33.92;;;12.20;72.10;;;;;;5070569;28;20021;-57
2022/01/13 10:32:45;;;;;;;50.35;37.10;;;12.10;73.00;;;;;;5054703;28;20049;-56
2022/01/13 10:35:21;;;;;;;46.38;36.78;;;13.90;72.90;;;;;;5069711;28;20392;-53
2022/01/13 10:37:56;;;;;;;45.78;39.15;;;13.30;71.70;;;;;;5073864;28;20528;-56
2022/01/13 10:40:30;;;;;;;43.22;34.38;;;14.10;71.10;;;;;;5071938;28;20040;-55
2022/01/13 10:45:39;;;;;;;47.92;34.20;;;14.80;70.60;;;;;;5071787;28;20035;-56
2022/01/13 10:48:14;;;;;;;39.45;32.28;;;14.90;69.20;;;;;;5063119;28;20051;-59
2022/01/13 10:50:54;;;;;;;36.65;30.67;;;15.10;68.50;;;;;;4982043;28;20415;-55
2022/01/13 10:53:30;;;;;;;40.13;29.98;;;14.90;67.30;;;;;;5072326;28;20126;-55
2022/01/13 10:56:00;;;;;;;46.72;33.70;;;14.90;69.20;;;;;;5071939;28;20028;-53
2022/01/13 10:58:34;;;;;;;40.70;35.03;;;15.30;69.40;;;;;;5072281;28;20033;-54
2022/01/13 11:01:01;;;;;;;60.67;39.33;;;15.60;91.10;;;;;;5071724;28;20056;-59
2022/01/13 11:03:28;;;;;;;43.05;30.55;;;;;;;;;;5072904;28;20036;-55
2022/01/13 11:05:59;;;;;;;38.50;28.80;;;13.60;68.40;;;;;;5071714;28;20072;-56
2022/01/13 11:08:38;;;;;;;36.30;27.63;;;13.60;68.90;;;;;;5072458;28;20036;-53
2022/01/13 11:11:04;;;;;;;37.50;31.95;;;13.40;68.20;;;;;;5010677;28;20330;-59
2022/01/13 11:13:36;;;;;;;37.42;28.60;;;13.60;68.20;;;;;;5009872;28;20561;-55
2022/01/13 11:16:01;;;;;;;38.03;27.13;;;13.40;69.10;;;;;;5010003;28;20033;-53
2022/01/13 11:18:29;;;;;;;48.08;30.98;;;;;;;;;;5009761;28;20283;-57
2022/01/13 11:20:57;;;;;;;44.05;32.03;;;11.50;72.50;;;;;;5006633;28;20086;-54
2022/01/13 11:23:24;;;;;;;40.05;29.08;;;10.80;73.30;;;;;;5006288;28;20022;-54
2022/01/13 11:25:52;;;;;;;42.15;29.98;;;;;;;;;;5006134;28;20100;-60
2022/01/13 11:28:19;;;;;;;38.65;28.05;;;10.90;72.60;;;;;;4992500;28;20141;-55
2022/01/13 11:30:46;;;;;;;45.10;31.55;;;10.60;73.50;;;;;;5007550;28;20038;-51
2022/01/13 11:33:12;;;;;;;51.35;31.45;;;10.80;74.00;;;;;;5009547;28;20042;-53
2022/01/13 11:35:45;;;;;;;43.03;30.35;;;10.60;74.00;;;;;;5007027;28;20060;-52
2022/01/13 11:38:13;;;;;;;47.00;34.28;;;10.40;74.70;;;;;;5009312;28;20137;-50
2022/01/13 11:40:43;;;;;;;57.67;34.05;;;11.20;74.00;;;;;;5004486;28;20045;-51
2022/01/13 11:43:27;;;;;;;68.25;40.38;;;10.90;73.70;;;;;;4995079;28;20033;-50
2022/01/13 11:45:53;;;;;;;45.38;31.60;;;11.40;74.20;;;;;;5035499;28;20043;-51
2022/01/13 11:48:19;;;;;;;38.28;29.08;;;10.90;73.50;;;;;;5071210;28;20044;-51
2022/01/13 11:50:51;;;;;;;38.88;26.65;;;10.90;73.30;;;;;;5071750;28;20487;-49
2022/01/13 11:53:32;;;;;;;43.97;28.45;;;10.70;73.10;;;;;;5054490;28;20028;-49
2022/01/13 11:55:58;;;;;;;51.25;32.55;;;10.80;74.20;;;;;;5071250;28;20471;-49
2022/01/13 11:58:31;;;;;;;35.42;25.27;;;10.90;73.30;;;;;;5071418;28;20036;-49
2022/01/13 12:01:09;;;;;;;35.45;25.50;;;10.90;74.00;;;;;;5071462;28;20040;-49
2022/01/13 12:03:36;;;;;;;47.75;33.17;;;11.50;73.60;;;;;;5072010;28;20040;-51
2022/01/13 12:06:03;;;;;;;40.38;30.23;;;11.90;74.00;;;;;;5069676;28;20469;-50
2022/01/13 12:08:51;;;;;;;33.85;23.42;;;12.00;73.60;;;;;;5070973;28;20039;-49
2022/01/13 12:11:37;;;;;;;37.85;25.88;;;11.10;94.80;;;;;;5072981;28;20070;-51
2022/01/13 12:14:30;;;;;;;35.92;22.83;;;10.40;74.20;;;;;;5072731;28;20551;-48
2022/01/13 12:17:05;;;;;;;32.75;23.15;;;10.60;75.10;;;;;;5031132;28;20153;-49
2022/01/13 12:19:44;;;;;;;29.67;20.85;;;9.50;76.80;;;;;;5074560;28;20091;-50
2022/01/13 12:22:18;;;;;;;37.97;23.33;;;9.60;75.50;;;;;;5072407;28;20024;-49
2022/01/13 12:24:47;;;;;;;32.60;22.77;;;9.30;76.50;;;;;;5072555;28;20139;-50
2022/01/13 12:27:14;;;;;;;29.15;19.67;;;9.00;76.90;;;;;;5071101;28;20036;-48
2022/01/13 12:29:45;;;;;;;30.25;20.92;;;8.80;78.10;;;;;;5067994;28;20036;-48
2022/01/13 12:32:11;;;;;;;30.17;21.17;;;8.80;78.30;;;;;;5073732;28;20514;-51
2022/01/13 12:34:39;;;;;;;31.15;21.33;;;8.40;78.50;;;;;;5054877;28;20032;-50
2022/01/13 12:37:14;;;;;;;27.67;18.42;;;8.00;80.50;;;;;;5072929;28;20115;-51
2022/01/13 12:39:45;;;;;;;32.78;21.88;;;7.80;79.90;;;;;;5072116;28;20029;-49
2022/01/13 12:42:24;;;;;;;36.08;20.50;;;7.90;81.30;;;;;;5070437;28;20076;-49
2022/01/13 12:47:47;;;;;;;33.97;19.23;;;7.90;81.40;;;;;;5002674;28;20081;-50
2022/01/13 12:50:14;;;;;;;30.63;20.15;;;7.80;81.80;;;;;;4973340;28;20585;-50
2022/01/13 12:52:40;;;;;;;28.35;19.23;;;6.70;82.50;;;;;;4993008;28;20101;-50
2022/01/13 12:55:06;;;;;;;35.97;22.00;;;6.70;83.10;;;;;;5005949;28;20044;-50
2022/01/13 12:57:32;;;;;;;34.55;21.15;;;7.20;83.70;;;;;;4942583;28;20450;-49
2022/01/13 12:59:58;;;;;;;33.17;20.77;;;7.30;83.50;;;;;;4974152;28;20057;-49
2022/01/13 13:02:25;;;;;;;28.15;17.85;;;7.00;83.10;;;;;;4942017;28;20137;-49
2022/01/13 13:04:51;;;;;;;28.77;16.98;;;6.30;84.50;;;;;;5006919;28;20050;-50
2022/01/13 13:07:17;;;;;;;36.30;23.25;;;6.30;85.70;;;;;;4976527;28;20068;-48
2022/01/13 13:09:42;;;;;;;33.03;19.63;;;6.10;85.30;;;;;;4975783;28;20033;-48
2022/01/13 13:12:13;;;;;;;19.88;12.65;;;5.70;86.60;;;;;;5001978;28;20460;-49
2022/01/13 13:17:28;;;;;;;26.73;15.07;;;;;;;;;;5008795;28;20413;-50
2022/01/13 13:19:54;;;;;;;40.88;24.75;;;;;;;;;;5004321;28;20092;-50
2022/01/13 13:22:21;;;;;;;36.38;23.10;;;;;;;;;;5011528;28;20037;-51
2022/01/13 13:24:46;;;;;;;36.85;21.40;;;6.40;99.90;;;;;;5053244;28;20036;-49